sensor_id;sensor_type;location;lat;lon;timestamp;P1;durP1;ratioP1;P2;durP2;ratioP2
69714;SDS011;56981;53.532;49.398;2022-07-22T00:01:37;44.42;;;17.65;;
69714;SDS011;56981;53.532;49.398;2022-07-22T00:04:04;50.83;;;20.63;;
69714;SDS011;56981;53.532;49.398;2022-07-22T00:06:30;51.65;;;19.88;;
69714;SDS011;56981;53.532;49.398;2022-07-22T00:08:56;50.47;;;20.50;;
69714;SDS011;56981;53.532;49.398;2022-07-22T00:11:23;50.67;;;20.98;;
69714;SDS011;56981;53.532;49.398;2022-07-22T00:13:49;55.13;;;21.85;;
69714;SDS011;56981;53.532;49.398;2022-07-22T00:16:15;63.63;;;24.35;;
69714;SDS011;56981;53.532;49.398;2022-07-22T00:18:41;57.67;;;23.42;;
69714;SDS011;56981;53.532;49.398;2022-07-22T00:21:07;68.05;;;23.60;;
69714;SDS011;56981;53.532;49.398;2022-07-22T00:23:34;61.60;;;23.52;;
69714;SDS011;56981;53.532;49.398;2022-07-22T00:26:00;57.05;;;22.98;;
69714;SDS011;56981;53.532;49.398;2022-07-22T00:28:26;53.42;;;21.17;;
69714;SDS011;56981;53.532;49.398;2022-07-22T00:30:52;42.38;;;18.58;;
69714;SDS011;56981;53.532;49.398;2022-07-22T00:33:18;31.00;;;14.60;;
69714;SDS011;56981;53.532;49.398;2022-07-22T00:35:44;30.30;;;12.70;;
69714;SDS011;56981;53.532;49.398;2022-07-22T00:38:10;22.25;;;11.50;;
69714;SDS011;56981;53.532;49.398;2022-07-22T00:40:36;27.15;;;11.50;;
69714;SDS011;56981;53.532;49.398;2022-07-22T00:43:02;23.10;;;10.93;;
69714;SDS011;56981;53.532;49.398;2022-07-22T00:45:28;24.92;;;10.40;;
69714;SDS011;56981;53.532;49.398;2022-07-22T00:47:54;19.23;;;9.10;;
69714;SDS011;56981;53.532;49.398;2022-07-22T00:50:20;14.93;;;6.85;;
69714;SDS011;56981;53.532;49.398;2022-07-22T00:52:49;14.50;;;6.28;;
69714;SDS011;56981;53.532;49.398;2022-07-22T00:55:15;6.80;;;4.95;;
69714;SDS011;56981;53.532;49.398;2022-07-22T00:57:41;6.03;;;4.13;;
69714;SDS011;56981;53.532;49.398;2022-07-22T01:00:09;9.00;;;4.95;;
69714;SDS011;56981;53.532;49.398;2022-07-22T01:02:39;8.35;;;4.63;;
69714;SDS011;56981;53.532;49.398;2022-07-22T01:05:05;10.10;;;6.05;;
69714;SDS011;56981;53.532;49.398;2022-07-22T01:07:32;8.07;;;5.78;;
69714;SDS011;56981;53.532;49.398;2022-07-22T01:09:59;14.82;;;6.25;;
69714;SDS011;56981;53.532;49.398;2022-07-22T01:12:25;21.23;;;8.15;;
69714;SDS011;56981;53.532;49.398;2022-07-22T01:14:51;18.05;;;6.35;;
69714;SDS011;56981;53.532;49.398;2022-07-22T01:17:17;16.50;;;7.55;;
69714;SDS011;56981;53.532;49.398;2022-07-22T01:19:43;18.85;;;8.93;;
69714;SDS011;56981;53.532;49.398;2022-07-22T01:22:10;19.70;;;8.25;;
69714;SDS011;56981;53.532;49.398;2022-07-22T01:24:36;17.65;;;7.65;;
69714;SDS011;56981;53.532;49.398;2022-07-22T01:27:02;7.82;;;5.82;;
69714;SDS011;56981;53.532;49.398;2022-07-22T01:29:28;6.88;;;5.03;;
69714;SDS011;56981;53.532;49.398;2022-07-22T01:31:54;7.13;;;5.22;;
69714;SDS011;56981;53.532;49.398;2022-07-22T01:34:22;4.55;;;4.15;;
69714;SDS011;56981;53.532;49.398;2022-07-22T01:36:48;6.80;;;4.18;;
69714;SDS011;56981;53.532;49.398;2022-07-22T01:39:15;4.22;;;3.72;;
69714;SDS011;56981;53.532;49.398;2022-07-22T01:41:42;5.53;;;3.42;;
69714;SDS011;56981;53.532;49.398;2022-07-22T01:44:09;5.78;;;3.60;;
69714;SDS011;56981;53.532;49.398;2022-07-22T01:46:35;5.18;;;3.47;;
69714;SDS011;56981;53.532;49.398;2022-07-22T01:49:01;5.35;;;3.40;;
69714;SDS011;56981;53.532;49.398;2022-07-22T01:51:28;3.55;;;2.95;;
69714;SDS011;56981;53.532;49.398;2022-07-22T01:53:54;5.35;;;3.00;;
69714;SDS011;56981;53.532;49.398;2022-07-22T01:56:20;4.45;;;2.85;;
69714;SDS011;56981;53.532;49.398;2022-07-22T01:58:46;4.75;;;2.80;;
69714;SDS011;56981;53.532;49.398;2022-07-22T02:01:12;3.88;;;3.20;;
69714;SDS011;56981;53.532;49.398;2022-07-22T02:03:38;3.50;;;2.70;;
69714;SDS011;56981;53.532;49.398;2022-07-22T02:06:04;5.20;;;2.83;;
69714;SDS011;56981;53.532;49.398;2022-07-22T02:08:30;5.55;;;2.90;;
69714;SDS011;56981;53.532;49.398;2022-07-22T02:10:57;3.33;;;2.90;;
69714;SDS011;56981;53.532;49.398;2022-07-22T02:13:23;3.40;;;3.00;;
69714;SDS011;56981;53.532;49.398;2022-07-22T02:15:49;5.53;;;3.60;;
69714;SDS011;56981;53.532;49.398;2022-07-22T02:18:15;5.55;;;2.90;;
69714;SDS011;56981;53.532;49.398;2022-07-22T02:20:43;3.38;;;2.78;;
69714;SDS011;56981;53.532;49.398;2022-07-22T02:23:11;3.95;;;2.80;;
69714;SDS011;56981;53.532;49.398;2022-07-22T02:25:37;5.57;;;2.90;;
69714;SDS011;56981;53.532;49.398;2022-07-22T02:28:04;4.35;;;3.00;;
69714;SDS011;56981;53.532;49.398;2022-07-22T02:30:30;6.30;;;2.78;;
69714;SDS011;56981;53.532;49.398;2022-07-22T02:32:57;3.17;;;2.80;;
69714;SDS011;56981;53.532;49.398;2022-07-22T02:35:24;3.85;;;2.55;;
69714;SDS011;56981;53.532;49.398;2022-07-22T02:37:50;3.45;;;2.90;;
69714;SDS011;56981;53.532;49.398;2022-07-22T02:40:16;4.22;;;2.75;;
69714;SDS011;56981;53.532;49.398;2022-07-22T02:42:42;3.75;;;2.60;;
69714;SDS011;56981;53.532;49.398;2022-07-22T02:45:09;3.00;;;2.75;;
69714;SDS011;56981;53.532;49.398;2022-07-22T02:47:38;3.50;;;2.40;;
69714;SDS011;56981;53.532;49.398;2022-07-22T02:50:11;3.33;;;2.60;;
69714;SDS011;56981;53.532;49.398;2022-07-22T02:52:37;2.97;;;2.70;;
69714;SDS011;56981;53.532;49.398;2022-07-22T02:55:03;3.42;;;2.38;;
69714;SDS011;56981;53.532;49.398;2022-07-22T02:57:31;3.17;;;2.53;;
69714;SDS011;56981;53.532;49.398;2022-07-22T03:00:00;3.10;;;2.53;;
69714;SDS011;56981;53.532;49.398;2022-07-22T03:02:26;3.15;;;2.35;;
69714;SDS011;56981;53.532;49.398;2022-07-22T03:04:52;3.33;;;2.75;;
69714;SDS011;56981;53.532;49.398;2022-07-22T03:07:18;2.78;;;2.55;;
69714;SDS011;56981;53.532;49.398;2022-07-22T03:09:45;2.88;;;2.60;;
69714;SDS011;56981;53.532;49.398;2022-07-22T03:12:13;3.65;;;2.83;;
69714;SDS011;56981;53.532;49.398;2022-07-22T03:14:39;6.40;;;3.08;;
69714;SDS011;56981;53.532;49.398;2022-07-22T03:17:05;2.63;;;2.40;;
69714;SDS011;56981;53.532;49.398;2022-07-22T03:19:31;4.07;;;3.53;;
69714;SDS011;56981;53.532;49.398;2022-07-22T03:21:57;3.20;;;1.85;;
69714;SDS011;56981;53.532;49.398;2022-07-22T03:24:23;4.15;;;2.22;;
69714;SDS011;56981;53.532;49.398;2022-07-22T03:26:50;2.35;;;2.15;;
69714;SDS011;56981;53.532;49.398;2022-07-22T03:29:16;4.97;;;2.22;;
69714;SDS011;56981;53.532;49.398;2022-07-22T03:31:42;3.03;;;1.92;;
69714;SDS011;56981;53.532;49.398;2022-07-22T03:34:08;4.18;;;2.38;;
69714;SDS011;56981;53.532;49.398;2022-07-22T03:36:34;5.15;;;2.42;;
69714;SDS011;56981;53.532;49.398;2022-07-22T03:39:00;3.97;;;2.13;;
69714;SDS011;56981;53.532;49.398;2022-07-22T03:41:26;5.72;;;2.40;;
69714;SDS011;56981;53.532;49.398;2022-07-22T03:43:52;4.20;;;2.40;;
69714;SDS011;56981;53.532;49.398;2022-07-22T03:46:18;4.07;;;2.05;;
69714;SDS011;56981;53.532;49.398;2022-07-22T03:48:47;3.72;;;2.25;;
69714;SDS011;56981;53.532;49.398;2022-07-22T03:51:13;4.00;;;2.88;;
69714;SDS011;56981;53.532;49.398;2022-07-22T03:53:39;3.28;;;2.28;;
69714;SDS011;56981;53.532;49.398;2022-07-22T03:56:06;3.38;;;2.22;;
69714;SDS011;56981;53.532;49.398;2022-07-22T03:58:32;3.72;;;2.13;;
69714;SDS011;56981;53.532;49.398;2022-07-22T04:00:58;3.55;;;2.50;;
69714;SDS011;56981;53.532;49.398;2022-07-22T04:03:24;3.78;;;2.45;;
69714;SDS011;56981;53.532;49.398;2022-07-22T04:05:50;3.17;;;2.50;;
69714;SDS011;56981;53.532;49.398;2022-07-22T04:08:19;3.13;;;2.78;;
69714;SDS011;56981;53.532;49.398;2022-07-22T04:10:45;4.75;;;2.90;;
69714;SDS011;56981;53.532;49.398;2022-07-22T04:13:11;9.02;;;3.28;;
69714;SDS011;56981;53.532;49.398;2022-07-22T04:15:37;8.57;;;3.00;;
69714;SDS011;56981;53.532;49.398;2022-07-22T04:18:04;11.63;;;3.88;;
69714;SDS011;56981;53.532;49.398;2022-07-22T04:20:30;8.85;;;3.42;;
69714;SDS011;56981;53.532;49.398;2022-07-22T04:22:56;9.00;;;4.32;;
69714;SDS011;56981;53.532;49.398;2022-07-22T04:25:23;7.82;;;3.72;;
69714;SDS011;56981;53.532;49.398;2022-07-22T04:27:52;8.18;;;3.97;;
69714;SDS011;56981;53.532;49.398;2022-07-22T04:30:18;3.60;;;2.85;;
69714;SDS011;56981;53.532;49.398;2022-07-22T04:32:47;3.33;;;2.63;;
69714;SDS011;56981;53.532;49.398;2022-07-22T04:35:13;4.20;;;2.63;;
69714;SDS011;56981;53.532;49.398;2022-07-22T04:37:39;4.15;;;2.50;;
69714;SDS011;56981;53.532;49.398;2022-07-22T04:40:05;4.10;;;2.97;;
69714;SDS011;56981;53.532;49.398;2022-07-22T04:42:32;5.00;;;2.53;;
69714;SDS011;56981;53.532;49.398;2022-07-22T04:44:58;2.85;;;2.38;;
69714;SDS011;56981;53.532;49.398;2022-07-22T04:47:24;2.80;;;2.60;;
69714;SDS011;56981;53.532;49.398;2022-07-22T04:49:50;3.13;;;2.53;;
69714;SDS011;56981;53.532;49.398;2022-07-22T04:52:16;2.22;;;1.58;;
69714;SDS011;56981;53.532;49.398;2022-07-22T04:54:42;3.55;;;2.40;;
69714;SDS011;56981;53.532;49.398;2022-07-22T04:57:09;3.40;;;2.40;;
69714;SDS011;56981;53.532;49.398;2022-07-22T04:59:40;3.75;;;2.38;;
69714;SDS011;56981;53.532;49.398;2022-07-22T05:02:06;3.95;;;2.70;;
69714;SDS011;56981;53.532;49.398;2022-07-22T05:04:33;4.22;;;1.92;;
69714;SDS011;56981;53.532;49.398;2022-07-22T05:07:01;4.93;;;2.30;;
69714;SDS011;56981;53.532;49.398;2022-07-22T05:09:31;5.97;;;2.50;;
69714;SDS011;56981;53.532;49.398;2022-07-22T05:11:57;3.75;;;2.38;;
69714;SDS011;56981;53.532;49.398;2022-07-22T05:14:37;8.48;;;2.92;;
69714;SDS011;56981;53.532;49.398;2022-07-22T05:17:03;5.28;;;3.25;;
69714;SDS011;56981;53.532;49.398;2022-07-22T05:19:36;10.85;;;2.80;;
69714;SDS011;56981;53.532;49.398;2022-07-22T05:22:03;7.97;;;2.90;;
69714;SDS011;56981;53.532;49.398;2022-07-22T05:25:05;9.27;;;3.10;;
69714;SDS011;56981;53.532;49.398;2022-07-22T05:27:31;7.43;;;2.80;;
69714;SDS011;56981;53.532;49.398;2022-07-22T05:29:57;6.55;;;2.75;;
69714;SDS011;56981;53.532;49.398;2022-07-22T05:32:23;11.43;;;3.13;;
69714;SDS011;56981;53.532;49.398;2022-07-22T05:34:50;5.68;;;2.55;;
69714;SDS011;56981;53.532;49.398;2022-07-22T05:37:16;10.45;;;2.72;;
69714;SDS011;56981;53.532;49.398;2022-07-22T05:39:43;7.18;;;2.90;;
69714;SDS011;56981;53.532;49.398;2022-07-22T05:42:09;12.02;;;3.08;;
69714;SDS011;56981;53.532;49.398;2022-07-22T05:44:35;9.68;;;3.22;;
69714;SDS011;56981;53.532;49.398;2022-07-22T05:47:02;9.63;;;2.83;;
69714;SDS011;56981;53.532;49.398;2022-07-22T05:49:29;13.15;;;3.88;;
69714;SDS011;56981;53.532;49.398;2022-07-22T05:51:55;8.65;;;3.08;;
69714;SDS011;56981;53.532;49.398;2022-07-22T05:54:27;9.35;;;3.72;;
69714;SDS011;56981;53.532;49.398;2022-07-22T05:56:53;9.02;;;2.53;;
69714;SDS011;56981;53.532;49.398;2022-07-22T05:59:19;9.10;;;2.85;;
69714;SDS011;56981;53.532;49.398;2022-07-22T06:01:45;4.88;;;2.45;;
69714;SDS011;56981;53.532;49.398;2022-07-22T06:04:12;5.85;;;2.78;;
69714;SDS011;56981;53.532;49.398;2022-07-22T06:06:38;8.23;;;2.60;;
69714;SDS011;56981;53.532;49.398;2022-07-22T06:09:05;8.25;;;2.65;;
69714;SDS011;56981;53.532;49.398;2022-07-22T06:11:31;4.85;;;2.47;;
69714;SDS011;56981;53.532;49.398;2022-07-22T06:14:15;4.68;;;2.60;;
69714;SDS011;56981;53.532;49.398;2022-07-22T06:16:41;6.43;;;2.67;;
69714;SDS011;56981;53.532;49.398;2022-07-22T06:19:07;5.50;;;2.80;;
69714;SDS011;56981;53.532;49.398;2022-07-22T06:21:33;37.42;;;3.78;;
69714;SDS011;56981;53.532;49.398;2022-07-22T06:24:00;2.95;;;2.10;;
69714;SDS011;56981;53.532;49.398;2022-07-22T06:26:26;7.00;;;2.20;;
69714;SDS011;56981;53.532;49.398;2022-07-22T06:28:53;3.53;;;1.90;;
69714;SDS011;56981;53.532;49.398;2022-07-22T06:31:19;3.47;;;2.28;;
69714;SDS011;56981;53.532;49.398;2022-07-22T06:33:46;4.00;;;2.17;;
69714;SDS011;56981;53.532;49.398;2022-07-22T06:36:12;5.97;;;2.47;;
69714;SDS011;56981;53.532;49.398;2022-07-22T06:38:39;5.47;;;2.63;;
69714;SDS011;56981;53.532;49.398;2022-07-22T06:41:06;2.97;;;2.10;;
69714;SDS011;56981;53.532;49.398;2022-07-22T06:43:32;4.97;;;2.70;;
69714;SDS011;56981;53.532;49.398;2022-07-22T06:45:58;5.60;;;3.15;;
69714;SDS011;56981;53.532;49.398;2022-07-22T06:48:24;8.65;;;3.10;;
69714;SDS011;56981;53.532;49.398;2022-07-22T06:50:50;13.70;;;3.45;;
69714;SDS011;56981;53.532;49.398;2022-07-22T06:53:16;7.13;;;2.80;;
69714;SDS011;56981;53.532;49.398;2022-07-22T06:55:42;6.18;;;2.50;;
69714;SDS011;56981;53.532;49.398;2022-07-22T06:58:08;5.38;;;2.70;;
69714;SDS011;56981;53.532;49.398;2022-07-22T07:00:35;3.60;;;2.88;;
69714;SDS011;56981;53.532;49.398;2022-07-22T07:03:01;3.05;;;2.70;;
69714;SDS011;56981;53.532;49.398;2022-07-22T07:05:27;4.15;;;3.08;;
69714;SDS011;56981;53.532;49.398;2022-07-22T07:07:54;11.10;;;5.30;;
69714;SDS011;56981;53.532;49.398;2022-07-22T07:10:21;67.90;;;6.72;;
69714;SDS011;56981;53.532;49.398;2022-07-22T07:12:47;5.13;;;3.70;;
69714;SDS011;56981;53.532;49.398;2022-07-22T07:15:13;6.55;;;3.70;;
69714;SDS011;56981;53.532;49.398;2022-07-22T07:17:40;7.97;;;4.28;;
69714;SDS011;56981;53.532;49.398;2022-07-22T07:20:06;12.20;;;4.70;;
69714;SDS011;56981;53.532;49.398;2022-07-22T07:22:32;13.18;;;5.90;;
69714;SDS011;56981;53.532;49.398;2022-07-22T07:25:05;10.30;;;5.18;;
69714;SDS011;56981;53.532;49.398;2022-07-22T07:27:33;9.43;;;5.30;;
69714;SDS011;56981;53.532;49.398;2022-07-22T07:30:00;12.55;;;6.65;;
69714;SDS011;56981;53.532;49.398;2022-07-22T07:32:26;12.95;;;6.38;;
69714;SDS011;56981;53.532;49.398;2022-07-22T07:34:52;9.57;;;5.45;;
69714;SDS011;56981;53.532;49.398;2022-07-22T07:37:18;10.00;;;4.65;;
69714;SDS011;56981;53.532;49.398;2022-07-22T07:39:44;6.63;;;4.57;;
69714;SDS011;56981;53.532;49.398;2022-07-22T07:42:10;5.50;;;3.88;;
69714;SDS011;56981;53.532;49.398;2022-07-22T07:44:36;6.05;;;3.83;;
69714;SDS011;56981;53.532;49.398;2022-07-22T07:47:02;6.43;;;3.25;;
69714;SDS011;56981;53.532;49.398;2022-07-22T07:49:28;5.00;;;2.75;;
69714;SDS011;56981;53.532;49.398;2022-07-22T07:51:55;4.10;;;3.58;;
69714;SDS011;56981;53.532;49.398;2022-07-22T07:54:21;8.55;;;3.75;;
69714;SDS011;56981;53.532;49.398;2022-07-22T07:56:47;3.75;;;3.42;;
69714;SDS011;56981;53.532;49.398;2022-07-22T07:59:13;5.03;;;3.80;;
69714;SDS011;56981;53.532;49.398;2022-07-22T08:01:42;6.45;;;3.40;;
69714;SDS011;56981;53.532;49.398;2022-07-22T08:04:08;5.13;;;3.03;;
69714;SDS011;56981;53.532;49.398;2022-07-22T08:06:34;7.97;;;3.10;;
69714;SDS011;56981;53.532;49.398;2022-07-22T08:09:01;7.60;;;3.13;;
69714;SDS011;56981;53.532;49.398;2022-07-22T08:11:27;8.52;;;3.45;;
69714;SDS011;56981;53.532;49.398;2022-07-22T08:13:53;3.95;;;2.65;;
69714;SDS011;56981;53.532;49.398;2022-07-22T08:16:19;5.88;;;2.78;;
69714;SDS011;56981;53.532;49.398;2022-07-22T08:18:45;7.13;;;2.00;;
69714;SDS011;56981;53.532;49.398;2022-07-22T08:21:11;2.75;;;2.00;;
69714;SDS011;56981;53.532;49.398;2022-07-22T08:23:38;6.40;;;2.15;;
69714;SDS011;56981;53.532;49.398;2022-07-22T08:26:04;4.82;;;2.67;;
69714;SDS011;56981;53.532;49.398;2022-07-22T08:28:30;4.70;;;2.45;;
69714;SDS011;56981;53.532;49.398;2022-07-22T08:30:56;6.47;;;2.45;;
69714;SDS011;56981;53.532;49.398;2022-07-22T08:33:22;5.35;;;2.60;;
69714;SDS011;56981;53.532;49.398;2022-07-22T08:35:48;6.53;;;3.20;;
69714;SDS011;56981;53.532;49.398;2022-07-22T08:38:14;4.38;;;2.80;;
69714;SDS011;56981;53.532;49.398;2022-07-22T08:40:40;4.95;;;2.42;;
69714;SDS011;56981;53.532;49.398;2022-07-22T08:43:06;6.93;;;2.45;;
69714;SDS011;56981;53.532;49.398;2022-07-22T08:45:33;4.07;;;1.95;;
69714;SDS011;56981;53.532;49.398;2022-07-22T08:47:59;2.95;;;1.80;;
69714;SDS011;56981;53.532;49.398;2022-07-22T08:50:29;2.15;;;1.80;;
69714;SDS011;56981;53.532;49.398;2022-07-22T08:52:56;3.55;;;1.90;;
69714;SDS011;56981;53.532;49.398;2022-07-22T08:55:23;4.57;;;2.25;;
69714;SDS011;56981;53.532;49.398;2022-07-22T08:57:49;2.47;;;1.77;;
69714;SDS011;56981;53.532;49.398;2022-07-22T09:00:17;2.30;;;2.13;;
69714;SDS011;56981;53.532;49.398;2022-07-22T09:02:45;4.38;;;1.65;;
69714;SDS011;56981;53.532;49.398;2022-07-22T09:05:13;1.70;;;1.60;;
69714;SDS011;56981;53.532;49.398;2022-07-22T09:07:41;2.40;;;1.77;;
69714;SDS011;56981;53.532;49.398;2022-07-22T09:10:10;3.88;;;1.60;;
69714;SDS011;56981;53.532;49.398;2022-07-22T09:12:52;1.70;;;1.60;;
69714;SDS011;56981;53.532;49.398;2022-07-22T09:17:51;2.80;;;1.70;;
69714;SDS011;56981;53.532;49.398;2022-07-22T09:20:18;2.25;;;1.55;;
69714;SDS011;56981;53.532;49.398;2022-07-22T09:22:45;3.28;;;1.45;;
69714;SDS011;56981;53.532;49.398;2022-07-22T09:25:17;1.75;;;1.65;;
69714;SDS011;56981;53.532;49.398;2022-07-22T09:27:49;3.25;;;1.70;;
69714;SDS011;56981;53.532;49.398;2022-07-22T09:30:18;1.73;;;1.60;;
69714;SDS011;56981;53.532;49.398;2022-07-22T09:32:48;5.07;;;1.80;;
69714;SDS011;56981;53.532;49.398;2022-07-22T09:35:16;3.95;;;2.78;;
69714;SDS011;56981;53.532;49.398;2022-07-22T09:40:17;2.60;;;1.70;;
69714;SDS011;56981;53.532;49.398;2022-07-22T09:42:58;3.13;;;1.60;;
69714;SDS011;56981;53.532;49.398;2022-07-22T09:45:27;7.75;;;1.73;;
69714;SDS011;56981;53.532;49.398;2022-07-22T09:47:55;2.95;;;1.75;;
69714;SDS011;56981;53.532;49.398;2022-07-22T09:50:24;3.45;;;1.77;;
69714;SDS011;56981;53.532;49.398;2022-07-22T09:52:55;4.78;;;1.75;;
69714;SDS011;56981;53.532;49.398;2022-07-22T09:55:23;4.25;;;1.70;;
69714;SDS011;56981;53.532;49.398;2022-07-22T09:57:51;2.97;;;1.60;;
69714;SDS011;56981;53.532;49.398;2022-07-22T10:00:21;2.05;;;1.70;;
69714;SDS011;56981;53.532;49.398;2022-07-22T10:02:49;11.70;;;2.05;;
69714;SDS011;56981;53.532;49.398;2022-07-22T10:05:20;3.72;;;1.55;;
69714;SDS011;56981;53.532;49.398;2022-07-22T10:07:50;1.80;;;1.58;;
69714;SDS011;56981;53.532;49.398;2022-07-22T10:10:21;2.97;;;1.60;;
69714;SDS011;56981;53.532;49.398;2022-07-22T10:12:50;2.75;;;1.60;;
69714;SDS011;56981;53.532;49.398;2022-07-22T10:15:17;2.65;;;1.52;;
69714;SDS011;56981;53.532;49.398;2022-07-22T10:17:46;1.60;;;1.48;;
69714;SDS011;56981;53.532;49.398;2022-07-22T10:20:16;1.92;;;1.65;;
69714;SDS011;56981;53.532;49.398;2022-07-22T10:22:51;1.80;;;1.60;;
69714;SDS011;56981;53.532;49.398;2022-07-22T10:25:19;3.15;;;1.60;;
69714;SDS011;56981;53.532;49.398;2022-07-22T10:27:51;3.17;;;2.08;;
69714;SDS011;56981;53.532;49.398;2022-07-22T10:30:27;2.00;;;1.90;;
69714;SDS011;56981;53.532;49.398;2022-07-22T10:35:55;3.38;;;1.73;;
69714;SDS011;56981;53.532;49.398;2022-07-22T10:38:24;1.92;;;1.65;;
69714;SDS011;56981;53.532;49.398;2022-07-22T10:40:52;2.40;;;1.65;;
69714;SDS011;56981;53.532;49.398;2022-07-22T10:45:56;2.25;;;1.63;;
69714;SDS011;56981;53.532;49.398;2022-07-22T10:51:09;4.80;;;2.03;;
69714;SDS011;56981;53.532;49.398;2022-07-22T10:53:56;5.63;;;2.00;;
69714;SDS011;56981;53.532;49.398;2022-07-22T10:56:24;2.42;;;1.70;;
69714;SDS011;56981;53.532;49.398;2022-07-22T10:58:53;3.05;;;1.98;;
69714;SDS011;56981;53.532;49.398;2022-07-22T11:01:22;3.40;;;1.60;;
69714;SDS011;56981;53.532;49.398;2022-07-22T11:03:53;2.05;;;1.42;;
69714;SDS011;56981;53.532;49.398;2022-07-22T11:06:30;3.45;;;1.90;;
69714;SDS011;56981;53.532;49.398;2022-07-22T11:08:57;3.28;;;1.50;;
69714;SDS011;56981;53.532;49.398;2022-07-22T11:14:23;2.38;;;1.60;;
69714;SDS011;56981;53.532;49.398;2022-07-22T11:17:14;2.78;;;1.65;;
69714;SDS011;56981;53.532;49.398;2022-07-22T11:19:40;2.78;;;1.70;;
69714;SDS011;56981;53.532;49.398;2022-07-22T11:22:10;3.20;;;1.80;;
69714;SDS011;56981;53.532;49.398;2022-07-22T11:24:38;3.28;;;1.98;;
69714;SDS011;56981;53.532;49.398;2022-07-22T11:27:09;5.07;;;1.95;;
69714;SDS011;56981;53.532;49.398;2022-07-22T11:29:40;4.25;;;2.13;;
69714;SDS011;56981;53.532;49.398;2022-07-22T11:34:39;3.08;;;1.90;;
69714;SDS011;56981;53.532;49.398;2022-07-22T11:37:16;4.57;;;2.28;;
69714;SDS011;56981;53.532;49.398;2022-07-22T11:39:50;2.50;;;1.83;;
69714;SDS011;56981;53.532;49.398;2022-07-22T11:42:17;2.72;;;1.80;;
69714;SDS011;56981;53.532;49.398;2022-07-22T11:44:43;3.70;;;1.90;;
69714;SDS011;56981;53.532;49.398;2022-07-22T11:47:09;6.72;;;2.30;;
69714;SDS011;56981;53.532;49.398;2022-07-22T11:49:37;3.90;;;2.15;;
69714;SDS011;56981;53.532;49.398;2022-07-22T11:52:05;3.17;;;1.95;;
69714;SDS011;56981;53.532;49.398;2022-07-22T11:54:34;6.15;;;2.15;;
69714;SDS011;56981;53.532;49.398;2022-07-22T11:57:01;6.10;;;2.10;;
69714;SDS011;56981;53.532;49.398;2022-07-22T11:59:27;2.20;;;2.00;;
69714;SDS011;56981;53.532;49.398;2022-07-22T12:01:54;2.95;;;2.13;;
69714;SDS011;56981;53.532;49.398;2022-07-22T12:04:23;2.15;;;1.85;;
69714;SDS011;56981;53.532;49.398;2022-07-22T12:06:51;4.20;;;2.25;;
69714;SDS011;56981;53.532;49.398;2022-07-22T12:09:24;2.20;;;1.65;;
69714;SDS011;56981;53.532;49.398;2022-07-22T12:11:53;2.63;;;1.60;;
69714;SDS011;56981;53.532;49.398;2022-07-22T12:14:21;1.85;;;1.60;;
69714;SDS011;56981;53.532;49.398;2022-07-22T12:16:55;1.77;;;1.50;;
69714;SDS011;56981;53.532;49.398;2022-07-22T12:19:30;4.05;;;1.95;;
69714;SDS011;56981;53.532;49.398;2022-07-22T12:22:03;4.10;;;1.70;;
69714;SDS011;56981;53.532;49.398;2022-07-22T12:24:37;1.25;;;1.17;;
69714;SDS011;56981;53.532;49.398;2022-07-22T12:27:08;4.63;;;1.77;;
69714;SDS011;56981;53.532;49.398;2022-07-22T12:32:03;2.85;;;1.23;;
69714;SDS011;56981;53.532;49.398;2022-07-22T12:34:41;4.07;;;1.88;;
69714;SDS011;56981;53.532;49.398;2022-07-22T12:37:16;2.25;;;1.80;;
69714;SDS011;56981;53.532;49.398;2022-07-22T12:42:42;28.17;;;6.22;;
69714;SDS011;56981;53.532;49.398;2022-07-22T12:45:13;4.30;;;1.90;;
69714;SDS011;56981;53.532;49.398;2022-07-22T12:50:37;5.57;;;4.65;;
69714;SDS011;56981;53.532;49.398;2022-07-22T12:55:32;107.88;;;14.68;;
69714;SDS011;56981;53.532;49.398;2022-07-22T12:58:00;30.45;;;4.80;;
69714;SDS011;56981;53.532;49.398;2022-07-22T13:00:31;4.68;;;1.88;;
69714;SDS011;56981;53.532;49.398;2022-07-22T13:03:02;4.80;;;2.10;;
69714;SDS011;56981;53.532;49.398;2022-07-22T13:05:28;7.20;;;2.40;;
69714;SDS011;56981;53.532;49.398;2022-07-22T13:07:55;4.43;;;2.50;;
69714;SDS011;56981;53.532;49.398;2022-07-22T13:10:21;6.00;;;2.58;;
69714;SDS011;56981;53.532;49.398;2022-07-22T13:12:49;9.68;;;2.55;;
69714;SDS011;56981;53.532;49.398;2022-07-22T13:15:16;10.10;;;2.88;;
69714;SDS011;56981;53.532;49.398;2022-07-22T13:17:43;4.55;;;1.92;;
69714;SDS011;56981;53.532;49.398;2022-07-22T13:20:09;3.30;;;2.30;;
69714;SDS011;56981;53.532;49.398;2022-07-22T13:22:38;5.97;;;2.42;;
69714;SDS011;56981;53.532;49.398;2022-07-22T13:25:05;1.90;;;1.70;;
69714;SDS011;56981;53.532;49.398;2022-07-22T13:27:32;2.53;;;2.30;;
69714;SDS011;56981;53.532;49.398;2022-07-22T13:29:59;6.80;;;2.28;;
69714;SDS011;56981;53.532;49.398;2022-07-22T13:32:25;5.30;;;2.40;;
69714;SDS011;56981;53.532;49.398;2022-07-22T13:34:51;4.28;;;1.90;;
69714;SDS011;56981;53.532;49.398;2022-07-22T13:37:17;5.35;;;2.22;;
69714;SDS011;56981;53.532;49.398;2022-07-22T13:39:43;6.03;;;2.60;;
69714;SDS011;56981;53.532;49.398;2022-07-22T13:42:11;2.20;;;2.00;;
69714;SDS011;56981;53.532;49.398;2022-07-22T13:44:38;3.88;;;2.00;;
69714;SDS011;56981;53.532;49.398;2022-07-22T13:47:04;2.92;;;1.85;;
69714;SDS011;56981;53.532;49.398;2022-07-22T13:49:31;6.97;;;3.03;;
69714;SDS011;56981;53.532;49.398;2022-07-22T13:51:57;3.72;;;2.10;;
69714;SDS011;56981;53.532;49.398;2022-07-22T13:54:23;6.18;;;2.55;;
69714;SDS011;56981;53.532;49.398;2022-07-22T13:56:49;4.50;;;2.65;;
69714;SDS011;56981;53.532;49.398;2022-07-22T13:59:16;7.35;;;2.78;;
69714;SDS011;56981;53.532;49.398;2022-07-22T14:01:42;5.05;;;2.97;;
69714;SDS011;56981;53.532;49.398;2022-07-22T14:04:08;3.72;;;3.10;;
69714;SDS011;56981;53.532;49.398;2022-07-22T14:06:34;7.88;;;2.67;;
69714;SDS011;56981;53.532;49.398;2022-07-22T14:09:01;5.90;;;3.80;;
69714;SDS011;56981;53.532;49.398;2022-07-22T14:11:29;6.68;;;3.33;;
69714;SDS011;56981;53.532;49.398;2022-07-22T14:13:55;6.05;;;3.63;;
69714;SDS011;56981;53.532;49.398;2022-07-22T14:16:21;7.82;;;4.13;;
69714;SDS011;56981;53.532;49.398;2022-07-22T14:19:14;9.68;;;4.65;;
69714;SDS011;56981;53.532;49.398;2022-07-22T14:21:41;4.95;;;3.28;;
69714;SDS011;56981;53.532;49.398;2022-07-22T14:24:09;10.05;;;4.60;;
69714;SDS011;56981;53.532;49.398;2022-07-22T14:26:36;11.73;;;6.07;;
69714;SDS011;56981;53.532;49.398;2022-07-22T14:29:03;10.82;;;4.82;;
69714;SDS011;56981;53.532;49.398;2022-07-22T14:31:31;4.68;;;2.50;;
69714;SDS011;56981;53.532;49.398;2022-07-22T14:33:58;4.35;;;2.67;;
69714;SDS011;56981;53.532;49.398;2022-07-22T14:36:24;8.02;;;2.90;;
69714;SDS011;56981;53.532;49.398;2022-07-22T14:38:51;5.43;;;3.15;;
69714;SDS011;56981;53.532;49.398;2022-07-22T14:41:19;6.05;;;3.20;;
69714;SDS011;56981;53.532;49.398;2022-07-22T14:43:45;8.15;;;2.80;;
69714;SDS011;56981;53.532;49.398;2022-07-22T14:46:12;6.93;;;2.70;;
69714;SDS011;56981;53.532;49.398;2022-07-22T14:48:38;3.38;;;2.25;;
69714;SDS011;56981;53.532;49.398;2022-07-22T14:51:05;4.32;;;2.30;;
69714;SDS011;56981;53.532;49.398;2022-07-22T14:53:31;9.00;;;4.45;;
69714;SDS011;56981;53.532;49.398;2022-07-22T14:55:58;6.25;;;3.08;;
69714;SDS011;56981;53.532;49.398;2022-07-22T14:58:24;7.65;;;6.88;;
69714;SDS011;56981;53.532;49.398;2022-07-22T15:00:51;12.68;;;7.43;;
69714;SDS011;56981;53.532;49.398;2022-07-22T15:03:17;5.63;;;3.88;;